createdAt,value
2023-02-08T00:02:32.474Z,-1.71
2023-02-08T00:05:21.060Z,-1.76
2023-02-08T00:08:11.705Z,-1.78
2023-02-08T00:11:00.343Z,-1.79
2023-02-08T00:13:48.848Z,-1.78
2023-02-08T00:16:37.332Z,-1.64
2023-02-08T00:19:27.326Z,-1.73
2023-02-08T00:22:15.898Z,-1.79
2023-02-08T00:25:04.773Z,-2.03
2023-02-08T00:27:53.291Z,-2.09
2023-02-08T00:30:42.593Z,-2.50
2023-02-08T00:33:31.293Z,-2.31
2023-02-08T00:36:21.710Z,-2.18
2023-02-08T00:39:10.242Z,-2.15
2023-02-08T00:41:58.746Z,-2.19
2023-02-08T00:44:47.277Z,-2.15
2023-02-08T00:47:36.312Z,-2.22
2023-02-08T00:50:24.957Z,-2.22
2023-02-08T00:53:14.815Z,-2.26
2023-02-08T00:56:03.262Z,-2.28
2023-02-08T00:58:51.992Z,-2.31
2023-02-08T01:01:41.212Z,-2.28
2023-02-08T01:04:29.670Z,-2.26
2023-02-08T01:07:18.199Z,-2.37
2023-02-08T01:10:12.352Z,-2.52
2023-02-08T01:13:01.759Z,-2.45
2023-02-08T01:15:50.896Z,-3.32
2023-02-08T01:18:39.610Z,-2.49
2023-02-08T01:21:29.650Z,-2.50
2023-02-08T01:24:18.629Z,-2.62
2023-02-08T01:27:08.393Z,-2.72
2023-02-08T01:29:56.880Z,-2.73
2023-02-08T01:32:45.453Z,-2.77
2023-02-08T01:35:33.884Z,-2.81
2023-02-08T01:38:22.722Z,-2.76
2023-02-08T01:41:16.011Z,-2.85
2023-02-08T01:44:09.064Z,-2.96
2023-02-08T01:46:57.571Z,-2.98
2023-02-08T01:49:46.216Z,-2.87
2023-02-08T01:52:35.015Z,-2.95
2023-02-08T01:55:25.236Z,-2.87
2023-02-08T01:58:14.210Z,-2.88
2023-02-08T02:01:04.617Z,-2.91
2023-02-08T02:03:54.707Z,-2.87
2023-02-08T02:06:45.530Z,-2.77
2023-02-08T02:09:39.253Z,-2.83
2023-02-08T02:12:28.317Z,-2.89
2023-02-08T02:15:16.860Z,-2.88
2023-02-08T02:18:08.387Z,-2.95
2023-02-08T02:21:11.322Z,-3.06
2023-02-08T02:24:31.441Z,-3.23
2023-02-08T02:27:41.927Z,-3.22
2023-02-08T02:31:08.740Z,-3.20
2023-02-08T02:34:04.822Z,-3.20
2023-02-08T02:36:57.691Z,-3.23
2023-02-08T02:39:51.359Z,-3.23
2023-02-08T02:43:04.276Z,-3.36
2023-02-08T02:46:00.026Z,-3.37
2023-02-08T02:48:51.929Z,-3.40
2023-02-08T02:51:44.690Z,-3.44
2023-02-08T02:54:35.610Z,-3.39
2023-02-08T02:57:29.255Z,-3.34
2023-02-08T03:00:23.048Z,-3.51
2023-02-08T03:03:15.278Z,-3.40
2023-02-08T03:06:06.458Z,-3.40
2023-02-08T03:09:14.354Z,-3.33
2023-02-08T03:12:09.392Z,-3.35
2023-02-08T03:15:00.725Z,-3.38
2023-02-08T03:18:02.149Z,-3.29
2023-02-08T03:20:53.511Z,-3.37
2023-02-08T03:23:46.162Z,-3.69
2023-02-08T03:26:39.679Z,-3.48
2023-02-08T03:29:36.420Z,-3.48
2023-02-08T03:32:27.278Z,-3.55
2023-02-08T03:35:18.974Z,-3.70
2023-02-08T03:38:10.676Z,-3.78
2023-02-08T03:41:01.131Z,-4.09
2023-02-08T03:43:53.719Z,-4.07
2023-02-08T03:46:44.917Z,-3.65
2023-02-08T03:49:36.528Z,-3.64
2023-02-08T03:52:25.771Z,-3.76
2023-02-08T03:55:15.764Z,-3.84
2023-02-08T03:58:07.763Z,-3.76
2023-02-08T04:01:00.914Z,-3.80
2023-02-08T04:03:53.448Z,-3.84
2023-02-08T04:06:42.253Z,-3.81
2023-02-08T04:09:30.729Z,-3.85
2023-02-08T04:12:19.347Z,-3.88
2023-02-08T04:15:08.841Z,-3.80
2023-02-08T04:17:58.674Z,-3.81
2023-02-08T04:20:47.110Z,-3.92
2023-02-08T04:23:35.532Z,-3.94
2023-02-08T04:26:23.963Z,-4.00
2023-02-08T04:29:12.450Z,-3.97
2023-02-08T04:32:01.061Z,-3.95
2023-02-08T04:34:50.872Z,-4.02
2023-02-08T04:37:39.357Z,-4.01
2023-02-08T04:40:27.791Z,-4.05
2023-02-08T04:43:16.301Z,-4.07
2023-02-08T04:46:06.026Z,-4.14
2023-02-08T04:48:55.640Z,-4.13
2023-02-08T04:51:46.396Z,-4.12
2023-02-08T04:54:35.011Z,-3.94
2023-02-08T04:57:23.483Z,-3.99
2023-02-08T05:00:13.402Z,-4.06
2023-02-08T05:03:01.864Z,-4.04
2023-02-08T05:05:58.970Z,-4.07
2023-02-08T05:08:48.783Z,-4.15
2023-02-08T05:11:38.047Z,-4.16
2023-02-08T05:14:26.542Z,-4.21
2023-02-08T05:17:15.036Z,-4.25
2023-02-08T05:20:03.930Z,-4.29
2023-02-08T05:22:52.407Z,-4.27
2023-02-08T05:25:42.230Z,-4.26
2023-02-08T05:28:30.721Z,-4.37
2023-02-08T05:31:21.479Z,-4.22
2023-02-08T05:34:10.011Z,-4.29
2023-02-08T05:36:58.475Z,-4.42
2023-02-08T05:39:46.988Z,-4.46
2023-02-08T05:42:36.780Z,-4.51
2023-02-08T05:45:25.319Z,-4.51
2023-02-08T05:48:14.321Z,-4.45
2023-02-08T05:51:02.759Z,-4.38
2023-02-08T05:53:51.259Z,-4.34
2023-02-08T05:56:40.077Z,-4.33
2023-02-08T05:59:30.095Z,-4.22
2023-02-08T06:02:18.595Z,-4.29
2023-02-08T06:05:07.785Z,-4.34
2023-02-08T06:07:56.222Z,-4.34
2023-02-08T06:10:45.889Z,-4.34
2023-02-08T06:13:34.601Z,-4.32
2023-02-08T06:16:24.537Z,-4.31
2023-02-08T06:19:13.370Z,-4.47
2023-02-08T06:22:01.819Z,-4.70
2023-02-08T06:24:50.246Z,-4.43
2023-02-08T06:27:38.764Z,-4.40
2023-02-08T06:30:27.230Z,-4.40
2023-02-08T06:33:17.360Z,-4.43
2023-02-08T06:36:06.552Z,-4.40
2023-02-08T06:38:55.293Z,-4.32
2023-02-08T06:41:43.843Z,-4.35
2023-02-08T06:44:32.294Z,-4.36
2023-02-08T06:47:20.756Z,-4.34
2023-02-08T06:50:11.329Z,-4.42
2023-02-08T06:52:59.833Z,-4.44
2023-02-08T06:55:49.108Z,-4.55
2023-02-08T06:58:38.986Z,-4.60
2023-02-08T07:01:27.537Z,-4.55
2023-02-08T07:04:16.005Z,-4.55
2023-02-08T07:07:06.152Z,-4.20
2023-02-08T07:09:54.861Z,-3.53
2023-02-08T07:12:43.285Z,-3.16
2023-02-08T07:15:32.061Z,-2.61
2023-02-08T07:18:20.521Z,-2.18
2023-02-08T07:21:11.569Z,-1.65
2023-02-08T07:24:01.464Z,-1.18
2023-02-08T07:26:49.924Z,-0.85
2023-02-08T07:29:39.201Z,-0.57
2023-02-08T07:32:27.858Z,-1.32
2023-02-08T07:35:16.359Z,-0.13
2023-02-08T07:38:04.833Z,0.21
2023-02-08T07:41:01.460Z,0.18
2023-02-08T07:43:51.010Z,0.41
2023-02-08T07:46:40.868Z,0.36
2023-02-08T07:49:29.505Z,0.18
2023-02-08T07:52:17.992Z,0.19
2023-02-08T07:55:06.910Z,0.31
2023-02-08T07:57:57.243Z,0.29
2023-02-08T08:00:45.880Z,0.43
2023-02-08T08:03:34.383Z,0.40
2023-02-08T08:06:24.007Z,0.38
2023-02-08T08:09:12.537Z,0.38
2023-02-08T08:12:02.179Z,0.74
2023-02-08T08:14:52.274Z,0.88
2023-02-08T08:17:42.187Z,1.06
2023-02-08T08:20:30.782Z,1.17
2023-02-08T08:23:19.648Z,1.15
2023-02-08T08:26:09.545Z,1.41
2023-02-08T08:28:58.028Z,1.61
2023-02-08T08:31:47.959Z,1.85
2023-02-08T08:34:36.610Z,1.86
2023-02-08T08:37:25.187Z,1.97
2023-02-08T08:40:14.139Z,1.90
2023-02-08T08:43:02.644Z,2.10
2023-02-08T08:45:53.128Z,2.39
2023-02-08T08:48:43.379Z,2.41
2023-02-08T08:51:35.146Z,2.75
2023-02-08T08:54:23.868Z,2.19
2023-02-08T08:57:12.349Z,2.10
2023-02-08T09:00:00.833Z,1.57
2023-02-08T09:02:49.349Z,1.80
2023-02-08T09:05:39.196Z,1.90
2023-02-08T09:08:27.652Z,2.04
2023-02-08T09:11:17.049Z,1.86
2023-02-08T09:14:06.493Z,1.85
2023-02-08T09:16:56.241Z,1.87
2023-02-08T09:19:45.306Z,2.01
2023-02-08T09:22:35.164Z,2.09
2023-02-08T09:25:23.938Z,2.09
2023-02-08T09:28:12.496Z,1.76
2023-02-08T09:31:01.713Z,2.13
2023-02-08T09:33:51.262Z,2.38
2023-02-08T09:36:41.242Z,2.36
2023-02-08T09:39:31.154Z,2.33
2023-02-08T09:42:29.445Z,2.58
2023-02-08T09:45:30.964Z,2.68
2023-02-08T09:48:23.290Z,2.85
2023-02-08T09:51:22.514Z,2.90
2023-02-08T09:54:16.395Z,2.89
2023-02-08T09:57:10.655Z,2.46
2023-02-08T10:00:02.813Z,2.53
2023-02-08T10:02:51.959Z,2.72
2023-02-08T10:05:40.607Z,2.96
2023-02-08T10:08:35.152Z,2.91
2023-02-08T10:11:33.841Z,2.88
2023-02-08T10:14:40.855Z,2.97
2023-02-08T10:17:50.369Z,3.02
2023-02-08T10:20:51.624Z,3.13
2023-02-08T10:23:52.300Z,3.35
2023-02-08T10:26:46.022Z,3.51
2023-02-08T10:29:55.648Z,2.74
2023-02-08T10:32:51.268Z,3.04
2023-02-08T10:35:44.505Z,3.16
2023-02-08T10:38:45.837Z,3.03
2023-02-08T10:41:39.398Z,3.04
2023-02-08T10:44:34.805Z,3.00
2023-02-08T10:47:34.725Z,2.99
2023-02-08T10:50:30.559Z,3.06
2023-02-08T10:53:20.478Z,3.01
2023-02-08T10:56:19.959Z,3.03
2023-02-08T10:59:16.064Z,3.18
2023-02-08T11:02:16.261Z,3.46
2023-02-08T11:05:08.723Z,3.64
2023-02-08T11:08:07.458Z,3.46
2023-02-08T11:11:01.086Z,3.34
2023-02-08T11:13:52.346Z,3.33
2023-02-08T11:16:41.850Z,3.53
2023-02-08T11:19:35.597Z,3.61
2023-02-08T11:22:26.527Z,3.57
2023-02-08T11:25:35.572Z,3.64
2023-02-08T11:28:28.147Z,3.68
2023-02-08T11:31:19.561Z,3.64
2023-02-08T11:34:10.112Z,3.56
2023-02-08T11:36:59.620Z,3.69
2023-02-08T11:39:54.217Z,3.72
2023-02-08T11:42:44.211Z,3.95
2023-02-08T11:45:34.445Z,3.92
2023-02-08T11:48:26.131Z,4.08
2023-02-08T11:51:23.839Z,4.04
2023-02-08T11:54:33.488Z,3.88
2023-02-08T11:57:24.759Z,3.62
2023-02-08T12:00:19.843Z,4.11
2023-02-08T12:03:14.810Z,4.30
2023-02-08T12:06:22.718Z,4.29
2023-02-08T12:09:18.870Z,4.22
2023-02-08T12:12:14.406Z,4.41
2023-02-08T12:15:10.229Z,4.39
2023-02-08T12:18:10.389Z,4.50
2023-02-08T12:21:02.789Z,4.72
2023-02-08T12:23:56.370Z,4.61
2023-02-08T12:26:55.902Z,4.52
2023-02-08T12:29:48.248Z,4.59
2023-02-08T12:32:59.524Z,4.81
2023-02-08T12:36:04.248Z,4.70
2023-02-08T12:39:26.466Z,4.82
2023-02-08T12:42:29.566Z,5.23
2023-02-08T12:45:42.915Z,5.20
2023-02-08T12:48:47.202Z,4.94
2023-02-08T12:51:41.084Z,5.21
2023-02-08T12:54:33.357Z,5.29
2023-02-08T12:57:24.514Z,5.33
2023-02-08T13:00:19.958Z,5.20
2023-02-08T13:03:14.081Z,5.24
2023-02-08T13:06:06.387Z,5.33
2023-02-08T13:08:59.820Z,5.37
2023-02-08T13:11:51.361Z,5.39
2023-02-08T13:14:44.611Z,5.20
2023-02-08T13:17:46.602Z,5.40
2023-02-08T13:20:41.260Z,5.38
2023-02-08T13:23:38.464Z,5.40
2023-02-08T13:26:34.683Z,5.40
2023-02-08T13:29:26.114Z,5.43
2023-02-08T13:32:18.593Z,5.33
2023-02-08T13:35:14.835Z,5.34
2023-02-08T13:38:05.253Z,5.36
2023-02-08T13:41:06.424Z,5.25
2023-02-08T13:43:57.942Z,5.23
2023-02-08T13:46:48.418Z,5.37
2023-02-08T13:49:44.196Z,5.36
2023-02-08T13:52:50.535Z,5.25
2023-02-08T13:56:09.181Z,5.16
2023-02-08T13:59:02.307Z,5.36
2023-02-08T14:02:26.899Z,5.46
2023-02-08T14:05:47.166Z,5.28
2023-02-08T14:08:43.225Z,5.22
2023-02-08T14:11:40.427Z,5.17
2023-02-08T14:14:30.433Z,5.01
2023-02-08T14:17:21.530Z,5.18
2023-02-08T14:20:20.947Z,5.21
2023-02-08T14:23:23.173Z,5.18
2023-02-08T14:26:24.210Z,5.16
2023-02-08T14:29:23.286Z,5.14
2023-02-08T14:32:24.093Z,5.19
2023-02-08T14:35:20.706Z,5.12
2023-02-08T14:38:48.182Z,5.10
2023-02-08T14:41:51.293Z,5.09
2023-02-08T14:45:03.729Z,5.07
2023-02-08T14:48:15.677Z,4.97
2023-02-08T14:51:19.935Z,5.02
2023-02-08T14:54:18.776Z,4.97
2023-02-08T14:57:25.156Z,4.94
2023-02-08T15:00:21.228Z,4.96
2023-02-08T15:03:17.234Z,4.97
2023-02-08T15:06:49.800Z,4.93
2023-02-08T15:09:40.535Z,4.92
2023-02-08T15:12:31.032Z,4.94
2023-02-08T15:15:29.909Z,5.02
2023-02-08T15:18:21.821Z,5.02
2023-02-08T15:21:17.958Z,4.94
2023-02-08T15:24:15.226Z,4.95
2023-02-08T15:27:04.290Z,4.43
2023-02-08T15:29:53.048Z,4.95
2023-02-08T15:32:41.622Z,4.88
2023-02-08T15:35:33.750Z,4.57
2023-02-08T15:38:23.476Z,4.86
2023-02-08T15:41:13.600Z,4.53
2023-02-08T15:44:04.091Z,4.68
2023-02-08T15:49:42.823Z,4.75
2023-02-08T15:52:34.972Z,4.70
2023-02-08T15:55:23.613Z,4.67
2023-02-08T15:58:17.745Z,4.25
2023-02-08T16:01:08.377Z,4.66
2023-02-08T16:03:59.142Z,4.62
2023-02-08T16:06:49.813Z,4.57
2023-02-08T16:09:39.641Z,4.52
2023-02-08T16:12:29.277Z,4.48
2023-02-08T16:15:43.118Z,4.45
2023-02-08T16:18:34.648Z,4.30
2023-02-08T16:21:29.597Z,4.26
2023-02-08T16:24:23.563Z,3.89
2023-02-08T16:27:22.728Z,4.12
2023-02-08T16:30:18.451Z,4.13
2023-02-08T16:33:08.448Z,3.96
2023-02-08T16:36:01.832Z,3.79
2023-02-08T16:39:26.511Z,3.70
2023-02-08T16:42:29.346Z,3.75
2023-02-08T16:45:20.028Z,3.13
2023-02-08T16:48:28.758Z,3.78
2023-02-08T16:51:21.616Z,2.79
2023-02-08T16:54:13.617Z,3.71
2023-02-08T16:57:02.253Z,3.58
2023-02-08T16:59:56.603Z,3.51
2023-02-08T17:02:45.232Z,3.39
2023-02-08T17:05:37.065Z,2.62
2023-02-08T17:08:25.613Z,2.96
2023-02-08T17:11:14.122Z,2.65
2023-02-08T17:14:02.753Z,2.74
2023-02-08T17:16:52.711Z,2.73
2023-02-08T17:19:41.247Z,2.73
2023-02-08T17:22:31.324Z,2.62
2023-02-08T17:25:20.458Z,2.56
2023-02-08T17:28:12.743Z,2.50
2023-02-08T17:31:01.727Z,1.96
2023-02-08T17:33:51.638Z,2.29
2023-02-08T17:36:42.648Z,2.25
2023-02-08T17:39:31.651Z,2.09
2023-02-08T17:42:20.175Z,1.89
2023-02-08T17:45:09.866Z,2.09
2023-02-08T17:48:00.994Z,2.05
2023-02-08T17:50:53.561Z,1.94
2023-02-08T17:53:43.763Z,1.95
2023-02-08T17:56:35.351Z,1.93
2023-02-08T17:59:23.867Z,1.89
2023-02-08T18:02:12.425Z,1.85
2023-02-08T18:05:00.881Z,1.79
2023-02-08T18:07:51.244Z,1.76
2023-02-08T18:10:39.721Z,1.78
2023-02-08T18:13:28.288Z,1.77
2023-02-08T18:16:18.855Z,1.79
2023-02-08T18:19:07.496Z,1.49
2023-02-08T18:21:56.474Z,1.75
2023-02-08T18:24:46.269Z,1.66
2023-02-08T18:27:34.805Z,1.70
2023-02-08T18:30:25.500Z,1.74
2023-02-08T18:33:14.071Z,1.72
2023-02-08T18:36:02.852Z,1.53
2023-02-08T18:38:53.101Z,1.75
2023-02-08T18:41:43.386Z,1.67
2023-02-08T18:44:31.857Z,1.62
2023-02-08T18:47:20.363Z,1.54
2023-02-08T18:50:10.038Z,1.78
2023-02-08T18:52:58.557Z,1.85
2023-02-08T18:55:53.440Z,1.77
2023-02-08T18:58:43.924Z,1.73
2023-02-08T19:01:32.587Z,1.73
2023-02-08T19:04:21.177Z,1.68
2023-02-08T19:07:09.712Z,1.58
2023-02-08T19:09:58.375Z,1.53
2023-02-08T19:12:47.070Z,1.41
2023-02-08T19:15:38.040Z,1.34
2023-02-08T19:18:26.613Z,1.28
2023-02-08T19:21:16.974Z,1.22
2023-02-08T19:24:06.156Z,1.17
2023-02-08T19:26:54.629Z,1.09
2023-02-08T19:29:44.393Z,1.03
2023-02-08T19:32:34.225Z,0.99
2023-02-08T19:35:22.750Z,0.69
2023-02-08T19:38:11.319Z,0.70
2023-02-08T19:40:59.815Z,0.65
2023-02-08T19:43:49.518Z,0.75
2023-02-08T19:46:39.101Z,0.70
2023-02-08T19:49:29.196Z,0.62
2023-02-08T19:52:20.672Z,0.53
2023-02-08T19:55:12.374Z,0.43
2023-02-08T19:58:00.890Z,0.46
2023-02-08T20:00:49.401Z,0.42
2023-02-08T20:03:38.126Z,0.44
2023-02-08T20:06:29.692Z,0.46
2023-02-08T20:09:18.163Z,0.47
2023-02-08T20:12:07.220Z,0.48
2023-02-08T20:14:55.989Z,0.39
2023-02-08T20:17:45.640Z,0.30
2023-02-08T20:20:34.640Z,0.39
2023-02-08T20:23:24.524Z,0.33
2023-02-08T20:26:14.916Z,0.25
2023-02-08T20:29:03.448Z,-0.07
2023-02-08T20:31:55.639Z,0.09
2023-02-08T20:34:53.945Z,0.06
2023-02-08T20:37:47.484Z,-0.12
2023-02-08T20:40:37.469Z,-0.05
2023-02-08T20:43:26.057Z,-0.14
2023-02-08T20:46:17.037Z,-0.08
2023-02-08T20:49:06.706Z,-0.14
2023-02-08T20:51:55.918Z,-0.07
2023-02-08T20:54:44.838Z,-0.04
2023-02-08T20:57:34.805Z,-0.08
2023-02-08T21:00:26.006Z,-0.18
2023-02-08T21:03:21.885Z,-0.18
2023-02-08T21:06:14.734Z,-0.54
2023-02-08T21:09:06.933Z,-0.27
2023-02-08T21:11:55.481Z,-0.11
2023-02-08T21:14:45.351Z,-0.30
2023-02-08T21:17:34.100Z,-0.45
2023-02-08T21:20:22.907Z,-0.50
2023-02-08T21:23:11.479Z,-0.45
2023-02-08T21:26:00.463Z,-0.61
2023-02-08T21:28:49.493Z,-0.55
2023-02-08T21:31:39.833Z,-0.54
2023-02-08T21:34:28.504Z,-0.49
2023-02-08T21:37:17.117Z,-0.42
2023-02-08T21:40:06.522Z,-0.60
2023-02-08T21:42:55.121Z,-0.57
2023-02-08T21:45:43.703Z,-0.70
2023-02-08T21:48:54.652Z,-0.78
2023-02-08T21:52:00.832Z,-0.72
2023-02-08T21:54:53.417Z,-0.73
2023-02-08T21:57:42.016Z,-0.85
2023-02-08T22:00:30.703Z,-0.77
2023-02-08T22:03:19.236Z,-0.88
2023-02-08T22:06:26.844Z,-0.79
2023-02-08T22:09:15.512Z,-0.85
2023-02-08T22:12:04.073Z,-0.71
2023-02-08T22:14:52.555Z,-0.81
2023-02-08T22:17:41.069Z,-0.81
2023-02-08T22:20:30.236Z,-1.05
2023-02-08T22:23:20.390Z,-0.84
2023-02-08T22:26:09.345Z,-0.81
2023-02-08T22:28:57.946Z,-0.83
2023-02-08T22:31:46.525Z,-0.82
2023-02-08T22:34:35.100Z,-0.77
2023-02-08T22:37:23.735Z,-0.79
2023-02-08T22:40:13.875Z,-0.85
2023-02-08T22:43:02.395Z,-0.73
2023-02-08T22:45:58.155Z,-0.65
2023-02-08T22:48:46.753Z,-0.66
2023-02-08T22:51:35.293Z,-0.73
2023-02-08T22:54:23.794Z,-0.72
2023-02-08T22:57:13.665Z,-0.65
2023-02-08T23:00:02.678Z,-0.74
2023-02-08T23:02:51.286Z,-0.69
2023-02-08T23:05:42.219Z,-0.72
2023-02-08T23:08:30.680Z,-0.80
2023-02-08T23:11:19.774Z,-0.78
2023-02-08T23:14:09.887Z,-0.91
2023-02-08T23:16:58.365Z,-1.23
2023-02-08T23:19:46.862Z,-0.88
2023-02-08T23:22:37.320Z,-0.89
2023-02-08T23:25:25.849Z,-0.94
2023-02-08T23:28:14.428Z,-0.94
2023-02-08T23:31:07.164Z,-0.95
2023-02-08T23:33:55.883Z,-1.02
2023-02-08T23:36:44.653Z,-1.11
2023-02-08T23:39:34.050Z,-1.00
2023-02-08T23:42:28.323Z,-1.02
2023-02-08T23:45:16.861Z,-1.08
2023-02-08T23:48:06.938Z,-1.04
2023-02-08T23:50:58.931Z,-1.10
2023-02-08T23:53:47.855Z,-1.07
2023-02-08T23:56:36.284Z,-0.89
2023-02-08T23:59:24.754Z,-0.81
